Time;durP1;ratioP1;P1;durP2;ratioP2;P2;SDS_P1;SDS_P2;PMS_P1;PMS_P2;Temp;Humidity;BMP_temperature;BMP_pressure;BME280_temperature;BME280_humidity;BME280_pressure;Samples;Min_cycle;Max_cycle;Signal;HPM_P1;HPM_P2
2023/01/09 00:00:30;;;;;;;8.43;2.63;;;18.30;69.40;;;;;;4415942;32;20085;-68
2023/01/09 00:02:56;;;;;;;9.60;3.25;;;18.30;69.40;;;;;;4416875;32;20074;-67
2023/01/09 00:05:22;;;;;;;8.35;2.70;;;18.30;69.50;;;;;;4416622;32;20094;-68
2023/01/09 00:07:48;;;;;;;9.93;2.72;;;18.30;69.40;;;;;;4415755;32;20146;-69
2023/01/09 00:10:14;;;;;;;9.68;3.17;;;18.30;69.40;;;;;;4415048;32;20075;-68
2023/01/09 00:12:40;;;;;;;7.53;2.83;;;18.20;69.40;;;;;;4415540;32;20589;-68
2023/01/09 00:15:07;;;;;;;6.30;2.58;;;18.20;69.40;;;;;;4423763;32;20126;-67
2023/01/09 00:17:33;;;;;;;8.43;2.92;;;18.20;69.40;;;;;;4430226;32;20512;-67
2023/01/09 00:19:59;;;;;;;8.07;2.60;;;18.20;69.40;;;;;;4430138;32;20120;-67
2023/01/09 00:22:25;;;;;;;8.25;2.50;;;18.20;69.40;;;;;;4430277;32;20098;-67
2023/01/09 00:24:52;;;;;;;6.40;2.40;;;18.20;69.40;;;;;;4430480;32;20220;-67
2023/01/09 00:27:18;;;;;;;8.60;2.55;;;18.20;69.50;;;;;;4430175;32;20059;-67
2023/01/09 00:29:45;;;;;;;8.07;2.80;;;18.20;69.50;;;;;;4429899;32;20152;-67
2023/01/09 00:32:11;;;;;;;7.68;2.40;;;18.20;69.50;;;;;;4429938;32;20082;-66
2023/01/09 00:34:37;;;;;;;8.25;2.10;;;18.20;69.50;;;;;;4429910;32;20073;-67
2023/01/09 00:37:10;;;;;;;7.65;2.40;;;18.20;69.40;;;;;;4430165;32;20505;-67
2023/01/09 00:39:37;;;;;;;7.20;2.30;;;18.10;69.40;;;;;;4429828;32;20432;-67
2023/01/09 00:42:05;;;;;;;6.03;2.13;;;18.10;69.40;;;;;;4416579;32;20088;-67
2023/01/09 00:44:38;;;;;;;6.38;2.30;;;18.10;69.40;;;;;;4429975;32;20125;-66
2023/01/09 00:47:15;;;;;;;9.55;2.85;;;18.10;69.40;;;;;;4429831;32;20090;-66
2023/01/09 00:49:42;;;;;;;9.50;2.40;;;18.10;69.40;;;;;;4422368;32;20087;-67
2023/01/09 00:52:11;;;;;;;8.43;2.28;;;18.10;69.40;;;;;;4429735;32;20623;-66
2023/01/09 00:54:38;;;;;;;8.38;2.10;;;18.10;69.40;;;;;;4429886;32;20490;-66
2023/01/09 00:57:05;;;;;;;8.18;2.47;;;18.10;69.40;;;;;;4429704;32;20135;-67
2023/01/09 00:59:30;;;;;;;6.40;2.22;;;18.10;69.40;;;;;;4430109;32;20213;-66
2023/01/09 01:01:57;;;;;;;8.52;2.50;;;18.10;69.40;;;;;;4415584;32;20079;-67
2023/01/09 01:09:53;;;;;;;7.30;2.17;;;18.00;69.40;;;;;;4429573;32;20130;-66
2023/01/09 01:12:19;;;;;;;6.45;2.13;;;18.00;69.30;;;;;;4429483;32;20090;-67
2023/01/09 01:14:45;;;;;;;7.90;2.70;;;18.00;69.40;;;;;;4429568;32;20705;-66
2023/01/09 01:17:11;;;;;;;8.43;2.53;;;18.00;69.40;;;;;;4415604;32;20152;-67
2023/01/09 01:19:37;;;;;;;5.22;1.95;;;18.00;69.40;;;;;;4429426;32;20538;-66
2023/01/09 01:22:03;;;;;;;7.25;2.25;;;18.00;69.40;;;;;;4429524;32;20090;-67
2023/01/09 01:24:29;;;;;;;4.93;1.70;;;18.00;69.40;;;;;;4429417;32;20184;-67
2023/01/09 01:26:56;;;;;;;5.95;1.92;;;18.00;69.40;;;;;;4429489;32;20216;-66
2023/01/09 01:29:22;;;;;;;7.70;2.22;;;18.00;69.40;;;;;;4429151;32;20055;-66
2023/01/09 01:31:49;;;;;;;5.57;1.90;;;18.00;69.40;;;;;;4429279;32;20078;-67
2023/01/09 01:34:15;;;;;;;9.23;2.50;;;18.00;69.50;;;;;;4429224;32;20129;-67
2023/01/09 01:36:41;;;;;;;7.38;2.42;;;18.00;69.50;;;;;;4429477;32;20528;-67
2023/01/09 01:39:07;;;;;;;6.38;1.77;;;18.00;69.50;;;;;;4429333;32;20085;-66
2023/01/09 01:41:33;;;;;;;4.85;1.77;;;17.90;69.50;;;;;;4429146;32;20663;-66
2023/01/09 01:44:22;;;;;;;4.15;1.58;;;17.90;69.50;;;;;;4429195;32;20164;-67
2023/01/09 01:46:48;;;;;;;7.05;2.40;;;17.90;69.60;;;;;;4428530;32;20424;-66
2023/01/09 01:49:19;;;;;;;5.93;2.15;;;17.90;69.60;;;;;;4429318;32;20093;-67
2023/01/09 01:51:50;;;;;;;6.68;1.92;;;17.90;69.60;;;;;;4428972;32;20176;-66
2023/01/09 01:54:25;;;;;;;4.50;1.88;;;17.90;69.50;;;;;;4428921;32;20400;-67
2023/01/09 01:56:57;;;;;;;6.03;1.85;;;17.90;69.50;;;;;;4427480;32;20070;-67
2023/01/09 01:59:34;;;;;;;4.18;1.70;;;17.90;69.90;;;;;;4428859;32;20420;-66
2023/01/09 02:02:01;;;;;;;6.10;1.90;;;17.90;70.40;;;;;;4428929;32;20089;-67
2023/01/09 02:04:49;;;;;;;6.28;1.92;;;17.90;69.60;;;;;;4425064;32;20100;-67
2023/01/09 02:07:15;;;;;;;5.35;1.77;;;17.90;69.60;;;;;;4429172;32;20128;-67
2023/01/09 02:09:43;;;;;;;4.97;1.67;;;17.80;69.50;;;;;;4428899;32;20543;-66
2023/01/09 02:12:22;;;;;;;6.65;1.88;;;17.80;69.50;;;;;;4428712;32;20093;-67
2023/01/09 02:15:02;;;;;;;7.13;2.13;;;17.90;69.60;;;;;;4429039;32;20181;-67
2023/01/09 02:17:56;;;;;;;6.07;1.83;;;17.80;69.50;;;;;;4419568;32;20078;-67
2023/01/09 02:20:42;;;;;;;10.43;2.20;;;17.80;69.50;;;;;;4428725;32;20417;-67
2023/01/09 02:23:26;;;;;;;4.13;1.48;;;17.80;69.60;;;;;;4428995;32;20093;-67
2023/01/09 02:26:26;;;;;;;5.80;1.98;;;17.80;69.50;;;;;;4429173;32;20086;-66
2023/01/09 02:29:30;;;;;;;5.68;1.70;;;17.80;69.50;;;;;;4428578;32;20138;-67
2023/01/09 02:32:07;;;;;;;5.30;2.10;;;17.80;69.50;;;;;;4428668;32;20444;-66
2023/01/09 02:34:45;;;;;;;5.63;1.70;;;17.80;69.50;;;;;;4428962;32;20509;-67
2023/01/09 02:37:48;;;;;;;4.40;1.65;;;17.80;69.50;;;;;;4429088;32;20101;-67
2023/01/09 02:40:25;;;;;;;3.35;1.40;;;17.80;69.50;;;;;;4429018;32;20234;-67
2023/01/09 02:42:53;;;;;;;3.42;1.30;;;17.80;69.60;;;;;;4428767;32;20098;-67
2023/01/09 02:45:19;;;;;;;4.13;1.60;;;17.70;69.60;;;;;;4428737;32;20066;-67
2023/01/09 02:47:46;;;;;;;4.63;1.70;;;17.70;69.50;;;;;;4428598;32;20567;-67
2023/01/09 02:50:22;;;;;;;3.85;1.50;;;17.70;69.50;;;;;;4428840;32;20160;-67
2023/01/09 02:53:27;;;;;;;5.20;1.63;;;17.70;69.50;;;;;;4428777;32;20079;-66
2023/01/09 02:56:02;;;;;;;2.85;1.38;;;17.70;69.50;;;;;;4418274;32;20074;-67
2023/01/09 02:59:02;;;;;;;2.58;1.30;;;17.70;69.50;;;;;;4429072;32;20099;-67
2023/01/09 03:01:54;;;;;;;4.07;1.50;;;17.70;69.50;;;;;;4414436;32;20106;-67
2023/01/09 03:04:53;;;;;;;5.07;1.83;;;17.70;69.50;;;;;;4427040;32;20093;-67
2023/01/09 03:07:35;;;;;;;7.60;1.63;;;17.70;69.50;;;;;;4415667;32;20597;-67
2023/01/09 03:10:22;;;;;;;4.30;1.50;;;17.70;69.50;;;;;;4431352;32;20094;-67
2023/01/09 03:12:53;;;;;;;3.03;1.30;;;17.60;69.50;;;;;;4434476;32;20070;-67
2023/01/09 03:15:23;;;;;;;3.25;1.48;;;17.60;69.50;;;;;;4431165;32;20243;-67
2023/01/09 03:17:51;;;;;;;3.78;1.48;;;17.60;69.50;;;;;;4431422;32;20093;-66
2023/01/09 03:20:22;;;;;;;3.65;1.40;;;17.60;69.50;;;;;;4430968;32;20496;-66
2023/01/09 03:22:55;;;;;;;2.85;1.20;;;17.60;69.50;;;;;;4431663;32;20606;-66
2023/01/09 03:25:21;;;;;;;3.78;1.45;;;17.60;69.50;;;;;;4431095;32;20213;-67
2023/01/09 03:27:51;;;;;;;3.90;1.40;;;17.60;69.50;;;;;;4431198;32;20078;-66
2023/01/09 03:30:18;;;;;;;4.30;1.40;;;17.60;69.50;;;;;;4431024;32;20495;-67
2023/01/09 03:32:43;;;;;;;5.35;1.60;;;17.60;69.60;;;;;;4430688;32;20077;-67
2023/01/09 03:35:09;;;;;;;3.30;1.30;;;17.60;69.50;;;;;;4430867;32;20519;-67
2023/01/09 03:37:35;;;;;;;3.70;1.38;;;17.60;69.50;;;;;;4431123;32;20106;-67
2023/01/09 03:40:01;;;;;;;2.55;1.25;;;17.60;69.50;;;;;;4430896;32;20070;-67
2023/01/09 03:42:27;;;;;;;2.22;1.00;;;17.60;69.60;;;;;;4430740;32;20080;-67
2023/01/09 03:44:52;;;;;;;4.07;1.45;;;17.50;69.50;;;;;;4430804;32;20483;-66
2023/01/09 03:47:18;;;;;;;2.08;1.23;;;17.60;69.60;;;;;;4430680;32;20293;-67
2023/01/09 03:49:44;;;;;;;4.32;1.30;;;17.50;69.50;;;;;;4430920;32;20143;-67
2023/01/09 03:52:12;;;;;;;2.17;1.10;;;17.50;69.50;;;;;;4430696;32;20204;-67
2023/01/09 03:54:39;;;;;;;2.40;1.20;;;17.50;69.50;;;;;;4430988;32;20217;-67
2023/01/09 03:57:05;;;;;;;3.45;1.23;;;17.50;69.50;;;;;;4430728;32;20168;-67
2023/01/09 03:59:31;;;;;;;2.83;1.30;;;17.50;69.50;;;;;;4416625;32;20084;-67
2023/01/09 04:01:57;;;;;;;1.77;1.05;;;17.50;69.50;;;;;;4430288;32;20082;-66
2023/01/09 04:04:23;;;;;;;4.18;1.50;;;17.50;69.60;;;;;;4430290;32;20113;-66
2023/01/09 04:06:49;;;;;;;4.90;1.20;;;17.50;69.60;;;;;;4419724;32;20078;-67
2023/01/09 04:09:15;;;;;;;2.15;0.95;;;17.50;69.50;;;;;;4430535;32;20070;-67
2023/01/09 04:11:40;;;;;;;2.75;1.25;;;17.50;69.50;;;;;;4430391;32;20066;-67
2023/01/09 04:14:06;;;;;;;2.33;1.17;;;17.50;69.50;;;;;;4430521;32;20106;-66
2023/01/09 04:16:32;;;;;;;1.80;0.90;;;17.50;69.50;;;;;;4429577;32;20078;-67
2023/01/09 04:18:58;;;;;;;3.08;1.30;;;17.50;69.60;;;;;;4430341;32;20106;-67
2023/01/09 04:21:24;;;;;;;2.03;1.10;;;17.50;69.60;;;;;;4430211;32;20204;-69
2023/01/09 04:23:50;;;;;;;3.20;1.20;;;17.50;69.60;;;;;;4420001;32;20404;-67
2023/01/09 04:26:17;;;;;;;2.42;1.02;;;17.50;69.60;;;;;;4430343;32;20555;-67
2023/01/09 04:28:43;;;;;;;3.92;1.10;;;17.40;69.50;;;;;;4416129;32;20089;-67
2023/01/09 04:31:09;;;;;;;2.95;1.10;;;17.40;69.50;;;;;;4429944;32;20102;-67
2023/01/09 04:33:35;;;;;;;2.47;0.93;;;17.40;69.50;;;;;;4430094;32;20114;-66
2023/01/09 04:36:02;;;;;;;2.95;1.10;;;17.40;69.50;;;;;;4430183;32;20071;-67
2023/01/09 04:38:28;;;;;;;2.60;1.10;;;17.40;69.50;;;;;;4429972;32;20079;-67
2023/01/09 04:40:54;;;;;;;4.13;1.13;;;17.40;69.50;;;;;;4429864;32;20059;-67
2023/01/09 04:43:20;;;;;;;2.22;0.98;;;17.40;69.50;;;;;;4429978;32;20070;-67
2023/01/09 04:45:46;;;;;;;3.28;1.10;;;17.40;69.50;;;;;;4429779;32;20137;-67
2023/01/09 04:48:12;;;;;;;3.03;1.05;;;17.40;69.60;;;;;;4430041;32;20516;-67
2023/01/09 04:50:38;;;;;;;3.25;1.30;;;17.40;69.60;;;;;;4429694;32;20492;-67
2023/01/09 04:53:04;;;;;;;1.88;0.90;;;17.40;69.50;;;;;;4430022;32;20408;-67
2023/01/09 04:55:30;;;;;;;3.28;1.00;;;17.30;69.50;;;;;;4429734;32;20082;-66
2023/01/09 04:57:56;;;;;;;2.35;0.82;;;17.40;69.60;;;;;;4429956;32;20107;-66
2023/01/09 05:00:22;;;;;;;2.33;1.05;;;17.30;69.50;;;;;;4429695;32;20508;-67
2023/01/09 05:02:48;;;;;;;2.40;1.02;;;17.30;69.60;;;;;;4429172;32;20085;-67
2023/01/09 05:05:14;;;;;;;2.65;1.15;;;17.40;69.60;;;;;;4429537;32;20059;-67
2023/01/09 05:07:40;;;;;;;2.70;1.02;;;17.30;69.60;;;;;;4415897;32;20085;-67
2023/01/09 05:10:08;;;;;;;1.60;0.80;;;17.30;69.60;;;;;;4429459;32;20106;-66
2023/01/09 05:12:35;;;;;;;2.55;0.98;;;17.30;69.60;;;;;;4429596;32;20428;-67
2023/01/09 05:15:02;;;;;;;1.77;0.88;;;17.30;69.60;;;;;;4429520;32;20066;-67
2023/01/09 05:17:28;;;;;;;2.35;0.88;;;17.30;69.70;;;;;;4429701;32;20507;-67
2023/01/09 05:19:54;;;;;;;2.72;1.17;;;17.30;69.60;;;;;;4429203;32;20070;-67
2023/01/09 05:22:20;;;;;;;2.53;0.88;;;17.30;69.60;;;;;;4429437;32;20156;-67
2023/01/09 05:24:46;;;;;;;2.28;0.90;;;17.30;69.60;;;;;;4429539;32;20137;-67
2023/01/09 05:27:12;;;;;;;2.42;1.00;;;17.30;69.60;;;;;;4429154;32;20090;-67
2023/01/09 05:29:38;;;;;;;1.98;0.73;;;17.30;69.60;;;;;;4429480;32;20220;-66
2023/01/09 05:32:06;;;;;;;2.03;0.77;;;17.30;69.60;;;;;;4415419;32;20145;-66
2023/01/09 05:34:41;;;;;;;2.78;0.98;;;17.20;69.50;;;;;;4429517;32;20508;-67
2023/01/09 05:37:06;;;;;;;2.22;1.02;;;17.20;69.60;;;;;;4429257;32;20077;-66
2023/01/09 05:39:32;;;;;;;2.42;1.20;;;17.20;69.50;;;;;;4429314;32;20078;-67
2023/01/09 05:41:58;;;;;;;1.30;0.68;;;17.20;69.60;;;;;;4429169;32;20105;-67
2023/01/09 05:44:24;;;;;;;1.95;0.90;;;17.20;69.60;;;;;;4429345;32;20074;-66
2023/01/09 05:46:50;;;;;;;3.78;0.85;;;17.20;69.60;;;;;;4429191;32;20389;-67
2023/01/09 05:49:21;;;;;;;2.15;0.88;;;17.20;69.60;;;;;;4429341;32;20490;-66
2023/01/09 05:51:47;;;;;;;4.85;1.10;;;17.20;69.60;;;;;;4429344;32;20070;-66
2023/01/09 05:54:14;;;;;;;2.90;1.00;;;17.20;69.60;;;;;;4429043;32;20144;-66
2023/01/09 05:56:41;;;;;;;1.55;0.93;;;17.20;69.60;;;;;;4429191;32;20220;-67
2023/01/09 05:59:07;;;;;;;1.75;0.82;;;17.20;69.60;;;;;;4428994;32;20590;-66
2023/01/09 06:01:33;;;;;;;1.90;0.90;;;17.20;69.60;;;;;;4428809;32;20082;-66
2023/01/09 06:03:59;;;;;;;1.55;0.88;;;17.20;69.60;;;;;;4428792;32;20059;-67
2023/01/09 06:06:27;;;;;;;1.75;0.90;;;17.10;69.50;;;;;;4428876;32;20607;-67
2023/01/09 06:08:53;;;;;;;2.10;0.90;;;17.20;69.60;;;;;;4429284;32;20224;-66
2023/01/09 06:11:19;;;;;;;2.05;1.02;;;17.20;69.60;;;;;;4429024;32;20063;-66
2023/01/09 06:13:45;;;;;;;2.60;0.93;;;17.10;69.50;;;;;;4415387;32;20073;-66
2023/01/09 06:16:12;;;;;;;1.30;0.80;;;17.10;69.50;;;;;;4429182;32;20216;-67
2023/01/09 06:18:38;;;;;;;1.95;0.70;;;17.10;69.60;;;;;;4428840;32;20071;-67
2023/01/09 06:21:04;;;;;;;1.85;0.82;;;17.10;69.50;;;;;;4429019;32;20425;-66
2023/01/09 06:23:30;;;;;;;1.65;0.85;;;17.20;69.40;;;;;;4428926;32;20118;-66
2023/01/09 06:25:59;;;;;;;2.47;1.15;;;17.20;69.30;;;;;;4429092;32;20067;-66
2023/01/09 06:28:25;;;;;;;1.35;0.70;;;17.20;69.30;;;;;;4428828;32;20144;-67
2023/01/09 06:30:51;;;;;;;1.40;0.75;;;17.20;69.10;;;;;;4429042;32;20126;-66
2023/01/09 06:33:19;;;;;;;2.25;0.70;;;17.20;68.90;;;;;;4428484;32;20172;-69
2023/01/09 06:35:45;;;;;;;1.40;0.80;;;17.20;68.90;;;;;;4418250;32;20539;-66
2023/01/09 06:38:12;;;;;;;1.38;0.77;;;17.20;68.80;;;;;;4428817;32;20082;-66
2023/01/09 06:40:39;;;;;;;2.55;0.85;;;17.30;68.90;;;;;;4417647;32;20081;-67
2023/01/09 06:43:05;;;;;;;1.58;0.60;;;17.30;68.70;;;;;;4432067;32;20125;-66
2023/01/09 06:45:33;;;;;;;1.52;0.88;;;17.30;68.60;;;;;;4431612;32;20106;-66
2023/01/09 06:47:58;;;;;;;1.60;0.73;;;17.30;68.50;;;;;;4431840;32;20541;-67
2023/01/09 06:50:42;;;;;;;2.35;0.90;;;17.30;68.50;;;;;;4431651;32;20088;-67
2023/01/09 06:53:09;;;;;;;1.83;0.98;;;17.30;68.40;;;;;;4431826;32;20172;-66
2023/01/09 06:55:35;;;;;;;1.25;0.60;;;17.30;68.40;;;;;;4431530;32;20228;-66
2023/01/09 06:58:21;;;;;;;1.77;0.63;;;17.40;68.30;;;;;;4420243;32;20071;-67
2023/01/09 07:01:08;;;;;;;2.75;0.95;;;17.40;68.30;;;;;;4419757;32;20563;-66
2023/01/09 07:03:53;;;;;;;0.98;0.63;;;17.40;68.20;;;;;;4419692;32;20097;-66
2023/01/09 07:06:19;;;;;;;1.73;0.68;;;17.40;68.10;;;;;;4431327;32;20484;-67
2023/01/09 07:08:45;;;;;;;2.63;0.80;;;17.40;68.10;;;;;;4431669;32;20204;-67
2023/01/09 07:11:11;;;;;;;1.67;0.70;;;17.40;68.10;;;;;;4431376;32;20085;-69
2023/01/09 07:13:37;;;;;;;1.48;0.68;;;17.50;68.10;;;;;;4436196;32;20070;-67
2023/01/09 07:16:04;;;;;;;1.77;0.65;;;17.50;68.00;;;;;;4437478;32;20373;-66
2023/01/09 07:18:30;;;;;;;1.70;0.77;;;17.40;68.00;;;;;;4431122;32;20172;-67
2023/01/09 07:20:56;;;;;;;1.42;0.80;;;17.50;68.00;;;;;;4431215;32;20674;-66
2023/01/09 07:23:22;;;;;;;1.65;0.60;;;17.50;67.90;;;;;;4431046;32;20121;-67
2023/01/09 07:25:50;;;;;;;1.65;0.70;;;17.50;67.90;;;;;;4431304;32;20055;-66
2023/01/09 07:28:16;;;;;;;1.50;0.70;;;17.50;67.90;;;;;;4430965;32;20164;-66
2023/01/09 07:30:42;;;;;;;0.98;0.45;;;17.50;67.90;;;;;;4431232;32;20063;-67
2023/01/09 07:33:08;;;;;;;2.60;0.85;;;17.50;67.90;;;;;;4430916;32;20152;-66
2023/01/09 07:35:36;;;;;;;1.02;0.60;;;17.50;67.90;;;;;;4430816;32;20104;-66
2023/01/09 07:38:02;;;;;;;1.77;0.82;;;17.50;67.90;;;;;;4431105;32;20416;-66
2023/01/09 07:40:28;;;;;;;1.90;0.90;;;17.50;67.90;;;;;;4430725;32;20212;-67
2023/01/09 07:42:53;;;;;;;1.23;0.52;;;17.50;67.90;;;;;;4417588;32;20081;-67
2023/01/09 07:45:19;;;;;;;1.67;0.50;;;17.50;67.90;;;;;;4416977;32;20070;-67
2023/01/09 07:47:45;;;;;;;2.20;0.70;;;17.50;67.90;;;;;;4416203;32;20067;-67
2023/01/09 07:50:11;;;;;;;1.33;0.60;;;17.50;67.90;;;;;;4415828;32;20125;-66
2023/01/09 07:52:37;;;;;;;1.58;0.70;;;17.50;67.90;;;;;;4417986;32;20144;-67
2023/01/09 07:55:04;;;;;;;1.95;0.70;;;17.50;68.70;;;;;;4416208;32;20075;-67
2023/01/09 07:57:29;;;;;;;1.00;0.57;;;17.50;67.70;;;;;;4416676;32;20512;-67
2023/01/09 07:59:56;;;;;;;1.10;0.52;;;17.50;67.80;;;;;;4417425;32;20098;-67
2023/01/09 08:02:24;;;;;;;1.42;0.50;;;17.50;67.70;;;;;;4415099;32;20083;-67
2023/01/09 08:04:50;;;;;;;1.70;0.70;;;17.50;67.80;;;;;;4417015;32;20078;-68
2023/01/09 08:07:16;;;;;;;1.25;0.47;;;17.50;67.80;;;;;;4415593;32;20105;-67
2023/01/09 08:09:45;;;;;;;0.85;0.52;;;17.50;67.80;;;;;;4418006;32;20087;-67
2023/01/09 08:12:11;;;;;;;1.95;0.60;;;17.50;67.80;;;;;;4415077;32;20055;-67
2023/01/09 08:14:37;;;;;;;1.40;0.70;;;17.50;67.80;;;;;;4423990;32;20126;-67
2023/01/09 08:17:02;;;;;;;1.45;0.68;;;17.50;67.70;;;;;;4416798;32;20142;-67
2023/01/09 08:19:29;;;;;;;1.10;0.55;;;17.50;67.70;;;;;;4415901;32;20284;-68
2023/01/09 08:22:00;;;;;;;1.80;0.80;;;17.50;67.80;;;;;;4415828;32;20075;-67
2023/01/09 08:24:26;;;;;;;2.47;0.90;;;17.50;67.90;;;;;;4415256;32;20437;-67
2023/01/09 08:26:52;;;;;;;2.80;0.80;;;17.50;68.10;;;;;;4418058;32;20085;-67
2023/01/09 08:29:18;;;;;;;1.73;0.60;;;17.50;68.40;;;;;;4430441;32;20164;-67
2023/01/09 08:31:44;;;;;;;1.25;0.57;;;17.50;68.60;;;;;;4429896;32;20082;-67
2023/01/09 08:34:10;;;;;;;1.45;0.68;;;17.50;68.50;;;;;;4430134;32;20058;-67
2023/01/09 08:36:37;;;;;;;2.17;0.50;;;17.60;68.20;;;;;;4430151;32;20243;-66
2023/01/09 08:39:03;;;;;;;1.30;0.50;;;17.80;67.90;;;;;;4430423;32;20503;-66
2023/01/09 08:47:06;;;;;;;5.05;0.65;;;18.20;67.00;;;;;;4426627;32;20661;-66
2023/01/09 08:49:37;;;;;;;1.45;0.57;;;18.40;66.50;;;;;;4429858;32;20455;-67
2023/01/09 08:52:05;;;;;;;0.93;0.40;;;18.50;66.10;;;;;;4430008;32;20504;-67
2023/01/09 08:54:38;;;;;;;1.55;0.60;;;18.70;65.80;;;;;;4430000;32;20093;-67
2023/01/09 08:57:05;;;;;;;1.70;0.60;;;18.80;65.40;;;;;;4429960;32;20130;-67
2023/01/09 08:59:33;;;;;;;2.30;0.60;;;19.00;65.20;;;;;;4429870;32;20103;-67
2023/01/09 09:01:59;;;;;;;1.88;0.50;;;19.10;64.80;;;;;;4429222;32;20520;-67
2023/01/09 09:04:28;;;;;;;0.82;0.50;;;19.20;64.50;;;;;;4429256;32;20101;-67
2023/01/09 09:06:54;;;;;;;1.25;0.80;;;19.30;64.30;;;;;;4429873;32;20062;-67
2023/01/09 09:09:19;;;;;;;3.08;0.70;;;19.30;64.10;;;;;;4429744;32;20075;-67
2023/01/09 09:11:51;;;;;;;1.40;0.50;;;19.40;64.00;;;;;;4429495;32;20109;-67
2023/01/09 09:17:27;;;;;;;0.60;0.40;;;19.40;64.00;;;;;;4405135;32;20552;-67
2023/01/09 09:20:13;;;;;;;3.03;0.70;;;19.40;64.00;;;;;;4405465;32;20164;-68
2023/01/09 09:22:59;;;;;;;1.15;0.70;;;19.40;64.10;;;;;;4403899;32;20074;-67
2023/01/09 09:25:45;;;;;;;3.47;0.52;;;19.40;64.10;;;;;;4402897;32;20093;-67
2023/01/09 09:28:31;;;;;;;1.85;0.60;;;19.40;64.10;;;;;;4404193;32;20094;-67
2023/01/09 09:31:16;;;;;;;1.50;0.60;;;19.40;64.10;;;;;;4407915;32;20268;-68
2023/01/09 09:34:02;;;;;;;1.35;0.50;;;19.40;64.10;;;;;;4403530;32;20086;-68
2023/01/09 09:36:48;;;;;;;1.02;0.60;;;19.40;64.10;;;;;;4405073;32;20169;-67
2023/01/09 09:39:35;;;;;;;2.45;0.55;;;19.40;64.10;;;;;;4403478;32;20093;-67
2023/01/09 09:46:12;;;;;;;1.65;0.60;;;19.50;64.20;;;;;;4404314;32;20416;-68
2023/01/09 09:49:16;;;;;;;0.85;0.32;;;19.40;64.10;;;;;;4399539;32;20137;-67
2023/01/09 09:52:17;;;;;;;2.00;0.50;;;19.40;64.10;;;;;;4404768;32;20067;-67
2023/01/09 09:54:48;;;;;;;1.75;0.60;;;19.50;64.20;;;;;;4414517;32;20082;-67
2023/01/09 09:57:18;;;;;;;2.35;0.55;;;19.50;64.20;;;;;;4425295;32;20534;-67
2023/01/09 09:59:50;;;;;;;1.10;0.50;;;19.50;64.20;;;;;;4425309;32;20090;-67
2023/01/09 10:02:31;;;;;;;1.23;0.65;;;19.50;64.20;;;;;;4414981;32;20149;-67
2023/01/09 10:05:16;;;;;;;1.92;0.43;;;19.50;64.20;;;;;;4427436;32;20126;-67
2023/01/09 10:07:47;;;;;;;1.67;0.50;;;19.50;64.20;;;;;;4428909;32;20078;-67
2023/01/09 10:10:42;;;;;;;0.52;0.35;;;19.50;64.20;;;;;;4428751;32;20066;-69
2023/01/09 10:16:21;;;;;;;0.98;0.50;;;19.50;64.20;;;;;;4432036;32;20251;-66
2023/01/09 10:19:38;;;;;;;2.55;0.40;;;19.50;64.20;;;;;;4431736;32;20128;-67
2023/01/09 10:22:10;;;;;;;0.88;0.40;;;19.50;64.20;;;;;;4402269;32;20105;-67
2023/01/09 10:24:53;;;;;;;1.30;0.40;;;19.50;64.20;;;;;;4416800;32;20075;-68
2023/01/09 10:27:47;;;;;;;0.67;0.30;;;19.50;65.20;;;;;;4416339;32;20114;-68
2023/01/09 10:30:50;;;;;;;3.40;0.50;;;19.60;64.40;;;;;;4417860;32;20231;-68
2023/01/09 10:33:28;;;;;;;2.88;0.22;;;19.60;64.40;;;;;;4426036;32;20164;-70
2023/01/09 10:36:36;;;;;;;1.50;0.50;;;19.60;64.40;;;;;;4430054;32;20113;-67
2023/01/09 10:39:08;;;;;;;1.33;0.60;;;19.60;64.50;;;;;;4429747;32;20090;-68
2023/01/09 10:41:40;;;;;;;0.90;0.40;;;19.60;64.50;;;;;;4428765;32;20142;-67
2023/01/09 10:44:20;;;;;;;0.35;0.30;;;19.60;64.60;;;;;;4431004;32;20220;-67
2023/01/09 10:46:56;;;;;;;5.57;0.50;;;19.60;64.70;;;;;;4431763;32;20066;-67
2023/01/09 10:49:23;;;;;;;1.35;0.38;;;19.50;64.70;;;;;;4431698;32;20109;-66
2023/01/09 10:51:54;;;;;;;3.97;0.52;;;19.50;64.70;;;;;;4437507;32;20180;-67
2023/01/09 10:54:22;;;;;;;0.75;0.38;;;19.50;64.80;;;;;;4431585;32;20074;-66
2023/01/09 10:57:06;;;;;;;2.67;0.70;;;19.50;64.90;;;;;;4431558;32;20085;-66
2023/01/09 10:59:32;;;;;;;;;;;19.50;64.90;;;;;;4425174;32;20519;-66
2023/01/09 11:02:00;;;;;;;3.45;0.43;;;19.50;65.00;;;;;;4426408;32;20479;-67
2023/01/09 11:04:29;;;;;;;2.28;0.52;;;19.50;65.00;;;;;;4429475;32;20659;-67
2023/01/09 11:07:06;;;;;;;1.42;0.40;;;19.50;65.00;;;;;;4423657;32;20165;-67
2023/01/09 11:09:53;;;;;;;1.08;0.43;;;19.50;65.10;;;;;;4426814;32;20472;-67
2023/01/09 11:12:26;;;;;;;3.47;0.60;;;19.50;65.10;;;;;;4430638;32;20144;-67
2023/01/09 11:14:53;;;;;;;15.40;0.65;;;19.50;65.10;;;;;;4430479;32;20221;-66
2023/01/09 11:17:24;;;;;;;1.77;0.60;;;19.50;65.10;;;;;;4430441;32;20097;-66
2023/01/09 11:20:18;;;;;;;2.47;0.40;;;19.50;65.10;;;;;;4430202;32;20086;-66
2023/01/09 11:22:46;;;;;;;2.28;0.70;;;19.50;65.20;;;;;;4430451;32;20079;-67
2023/01/09 11:25:15;;;;;;;1.92;0.50;;;19.50;65.20;;;;;;4429901;32;20101;-67
2023/01/09 11:27:42;;;;;;;2.97;0.50;;;19.50;65.30;;;;;;4430180;32;20259;-67
2023/01/09 11:30:27;;;;;;;2.03;0.70;;;19.50;65.40;;;;;;4422730;32;20275;-67
2023/01/09 11:32:55;;;;;;;1.50;0.50;;;19.50;65.40;;;;;;4429887;32;20483;-67
2023/01/09 11:35:26;;;;;;;0.73;0.30;;;19.50;65.40;;;;;;4430322;32;20253;-67
2023/01/09 11:38:24;;;;;;;4.13;0.38;;;19.50;65.40;;;;;;4430298;32;20472;-67
2023/01/09 11:40:54;;;;;;;1.08;0.47;;;19.50;65.40;;;;;;4391782;32;20090;-68
2023/01/09 11:43:34;;;;;;;0.95;0.40;;;19.50;65.40;;;;;;4420597;32;20104;-68
2023/01/09 11:46:06;;;;;;;0.80;0.30;;;19.50;65.50;;;;;;4429087;32;20177;-66
2023/01/09 11:48:50;;;;;;;2.10;0.45;;;19.50;65.40;;;;;;4429488;32;20164;-67
2023/01/09 11:51:20;;;;;;;0.63;0.30;;;19.50;65.40;;;;;;4429517;32;20077;-67
2023/01/09 11:54:08;;;;;;;1.45;0.50;;;19.50;65.40;;;;;;4428679;32;20066;-67
2023/01/09 11:56:35;;;;;;;1.58;0.28;;;19.60;65.40;;;;;;4421552;32;20532;-67
2023/01/09 11:59:07;;;;;;;1.30;0.40;;;19.60;65.40;;;;;;4429514;32;20071;-67
2023/01/09 12:02:02;;;;;;;1.13;0.30;;;19.60;65.40;;;;;;4421017;32;20552;-67
2023/01/09 12:04:41;;;;;;;0.75;0.32;;;19.60;65.30;;;;;;4421938;32;20118;-67
2023/01/09 12:07:18;;;;;;;1.17;0.40;;;19.60;65.30;;;;;;4415160;32;20225;-67
2023/01/09 12:10:21;;;;;;;0.60;0.35;;;19.60;65.30;;;;;;4419152;32;20097;-67
2023/01/09 12:13:02;;;;;;;0.95;0.38;;;19.60;65.20;;;;;;4416564;32;20134;-67
2023/01/09 12:15:40;;;;;;;1.38;0.50;;;19.70;65.20;;;;;;4417206;32;20579;-67
2023/01/09 12:18:11;;;;;;;0.75;0.40;;;19.70;65.20;;;;;;4418648;32;20091;-66
2023/01/09 12:21:24;;;;;;;0.70;0.45;;;19.70;65.20;;;;;;4417690;32;20142;-67
2023/01/09 12:23:57;;;;;;;1.63;0.20;;;19.70;65.30;;;;;;4399439;32;20100;-67
2023/01/09 12:26:52;;;;;;;1.05;0.50;;;19.70;65.20;;;;;;4415264;32;20094;-67
2023/01/09 12:29:20;;;;;;;1.70;0.40;;;19.70;65.20;;;;;;4401201;32;20114;-67
2023/01/09 12:31:52;;;;;;;1.95;0.65;;;19.70;65.30;;;;;;4416135;32;20176;-67
2023/01/09 12:34:24;;;;;;;1.75;0.60;;;19.70;65.30;;;;;;4413803;32;20106;-67
2023/01/09 12:37:14;;;;;;;1.25;0.38;;;19.70;65.40;;;;;;4415983;32;20137;-67
2023/01/09 12:40:15;;;;;;;2.10;0.52;;;19.70;65.30;;;;;;4419433;32;20595;-68
2023/01/09 12:42:49;;;;;;;2.38;0.30;;;19.70;65.40;;;;;;4389562;32;20102;-67
2023/01/09 12:45:41;;;;;;;0.55;0.30;;;19.70;65.50;;;;;;4417172;32;20436;-68
2023/01/09 12:48:44;;;;;;;0.93;0.32;;;19.70;65.50;;;;;;4411103;32;20138;-67
2023/01/09 12:51:31;;;;;;;0.40;0.30;;;19.70;65.50;;;;;;4414018;32;20079;-66
2023/01/09 12:54:10;;;;;;;1.13;0.50;;;19.70;65.60;;;;;;4420664;32;20082;-67
2023/01/09 12:56:47;;;;;;;1.35;0.60;;;19.70;65.60;;;;;;4423142;32;20512;-67
2023/01/09 12:59:32;;;;;;;0.93;0.38;;;19.70;65.60;;;;;;4421285;32;20081;-67
2023/01/09 13:02:31;;;;;;;1.98;0.50;;;19.70;65.60;;;;;;4421840;32;20718;-68
2023/01/09 13:05:14;;;;;;;1.98;0.47;;;19.70;65.60;;;;;;4422999;32;20100;-68
2023/01/09 13:07:47;;;;;;;2.47;0.50;;;19.70;65.80;;;;;;4421598;32;20367;-67
2023/01/09 13:10:26;;;;;;;1.55;0.60;;;19.70;65.80;;;;;;4421598;32;20593;-67
2023/01/09 13:12:53;;;;;;;0.85;0.28;;;19.70;65.90;;;;;;4421525;32;20078;-67
2023/01/09 13:15:30;;;;;;;1.15;0.32;;;19.70;65.80;;;;;;4421760;32;21241;-68
2023/01/09 13:18:19;;;;;;;0.50;0.20;;;19.80;66.00;;;;;;4421859;32;20110;-67
2023/01/09 13:20:48;;;;;;;1.13;0.25;;;19.80;66.00;;;;;;4422804;32;20118;-67
2023/01/09 13:23:20;;;;;;;1.30;0.60;;;19.80;66.10;;;;;;4421717;32;20254;-67
2023/01/09 13:25:53;;;;;;;1.17;0.40;;;19.80;66.10;;;;;;4420394;32;20540;-68
2023/01/09 13:28:42;;;;;;;0.85;0.40;;;19.80;66.20;;;;;;4420038;32;20122;-67
2023/01/09 13:31:11;;;;;;;0.88;0.30;;;19.80;66.10;;;;;;4418456;32;20146;-67
2023/01/09 13:33:40;;;;;;;0.85;0.30;;;19.80;66.20;;;;;;4416045;32;20441;-68
2023/01/09 13:36:06;;;;;;;1.00;0.52;;;19.80;66.20;;;;;;4414948;32;20401;-68